Time;durP1;ratioP1;P1;durP2;ratioP2;P2;SDS_P1;SDS_P2;PMS_P1;PMS_P2;Temp;Humidity;BMP_temperature;BMP_pressure;BME280_temperature;BME280_humidity;BME280_pressure;Samples;Min_cycle;Max_cycle;Signal;HPM_P1;HPM_P2
2022/07/02 00:01:17;;;;;;;;;;;12.30;99.90;;;;;;5001686;28;19920;-63
2022/07/02 00:03:47;;;;;;;;;;;12.40;99.90;;;;;;5000778;28;20341;-62
2022/07/02 00:06:14;;;;;;;;;;;12.40;99.90;;;;;;4993925;28;19920;-63
2022/07/02 00:08:42;;;;;;;;;;;12.50;99.90;;;;;;4999525;28;19921;-63
2022/07/02 00:11:07;;;;;;;;;;;12.50;99.90;;;;;;5000210;28;19910;-63
2022/07/02 00:13:33;;;;;;;;;;;12.70;99.90;;;;;;5001651;28;19916;-63
2022/07/02 00:15:59;;;;;;;;;;;12.80;99.90;;;;;;4995879;28;20284;-62
2022/07/02 00:18:24;;;;;;;;;;;12.80;99.90;;;;;;4998824;28;19914;-63
2022/07/02 00:20:50;;;;;;;;;;;12.80;99.90;;;;;;4997267;28;20258;-63
2022/07/02 00:23:15;;;;;;;;;;;12.80;99.90;;;;;;4997997;28;19913;-63
2022/07/02 00:25:42;;;;;;;;;;;12.70;99.90;;;;;;5005361;28;19909;-63
2022/07/02 00:28:10;;;;;;;;;;;12.60;99.90;;;;;;4985209;28;19910;-63
2022/07/02 00:30:37;;;;;;;;;;;12.50;99.90;;;;;;5002561;28;19916;-63
2022/07/02 00:33:02;;;;;;;;;;;12.50;99.90;;;;;;4998236;28;19920;-63
2022/07/02 00:35:29;;;;;;;;;;;12.50;99.90;;;;;;4998082;28;19909;-63
2022/07/02 00:37:55;;;;;;;;;;;12.50;99.90;;;;;;5001594;28;19922;-63
2022/07/02 00:40:20;;;;;;;;;;;12.70;99.90;;;;;;4998427;28;19924;-63
2022/07/02 00:42:46;;;;;;;;;;;12.70;99.90;;;;;;5001212;28;20492;-63
2022/07/02 00:45:12;;;;;;;;;;;12.80;99.90;;;;;;5001641;28;20539;-63
2022/07/02 00:47:39;;;;;;;;;;;12.70;99.90;;;;;;5002256;28;19920;-63
2022/07/02 00:50:05;;;;;;;;;;;12.80;99.90;;;;;;4997754;28;19967;-63
2022/07/02 00:52:31;;;;;;;;;;;12.90;99.90;;;;;;5002756;28;20529;-63
2022/07/02 00:54:56;;;;;;;;;;;12.80;99.90;;;;;;5001308;28;19921;-62
2022/07/02 00:57:22;;;;;;;;;;;12.80;99.90;;;;;;4986459;28;19916;-63
2022/07/02 00:59:47;;;;;;;;;;;12.90;99.90;;;;;;5000416;28;20414;-63
2022/07/02 01:02:14;;;;;;;;;;;12.80;99.90;;;;;;5000449;28;19913;-63
2022/07/02 01:04:40;;;;;;;;;;;12.60;99.90;;;;;;4998850;28;20198;-63
2022/07/02 01:07:06;;;;;;;;;;;12.30;99.90;;;;;;4997055;28;19933;-63
2022/07/02 01:12:25;;;;;;;;;;;12.20;99.90;;;;;;4998112;28;20017;-63
2022/07/02 01:14:55;;;;;;;;;;;12.00;99.90;;;;;;4998264;28;19976;-63
2022/07/02 01:17:20;;;;;;;;;;;11.90;99.90;;;;;;4997315;28;19913;-63
2022/07/02 01:19:46;;;;;;;;;;;12.00;99.90;;;;;;4988197;28;19944;-63
2022/07/02 01:22:11;;;;;;;;;;;12.00;99.90;;;;;;4997316;28;20000;-63
2022/07/02 01:24:37;;;;;;;;;;;12.10;99.90;;;;;;4997046;28;20436;-63
2022/07/02 01:27:03;;;;;;;;;;;12.10;99.90;;;;;;4996895;28;19909;-63
2022/07/02 01:29:28;;;;;;;;;;;12.20;99.90;;;;;;4993745;28;19916;-63
2022/07/02 01:31:54;;;;;;;;;;;12.20;99.90;;;;;;4994702;28;20000;-63
2022/07/02 01:34:19;;;;;;;;;;;12.40;99.90;;;;;;4997061;28;19953;-63
2022/07/02 01:36:45;;;;;;;;;;;12.70;99.90;;;;;;4994933;28;19918;-61
2022/07/02 01:39:10;;;;;;;;;;;12.90;99.90;;;;;;4989511;28;19913;-62
2022/07/02 01:41:38;;;;;;;;;;;13.00;99.90;;;;;;4998562;28;19924;-62
2022/07/02 01:44:04;;;;;;;;;;;13.10;99.90;;;;;;4997371;28;20222;-61
2022/07/02 01:46:29;;;;;;;;;;;13.10;99.90;;;;;;4999911;28;19953;-62
2022/07/02 01:48:55;;;;;;;;;;;13.10;99.90;;;;;;5000066;28;19960;-62
2022/07/02 01:51:20;;;;;;;;;;;13.00;99.90;;;;;;4997365;28;19920;-62
2022/07/02 01:53:46;;;;;;;;;;;13.10;99.90;;;;;;4999762;28;20273;-62
2022/07/02 01:56:11;;;;;;;;;;;13.10;99.90;;;;;;4996873;28;19913;-62
2022/07/02 01:58:37;;;;;;;;;;;13.20;99.90;;;;;;4997125;28;19942;-62
2022/07/02 02:01:02;;;;;;;;;;;13.20;99.90;;;;;;5000051;28;20506;-62
2022/07/02 02:03:28;;;;;;;;;;;13.20;99.90;;;;;;4987569;28;20393;-62
2022/07/02 02:05:53;;;;;;;;;;;13.10;99.90;;;;;;4999043;28;20036;-62
2022/07/02 02:08:19;;;;;;;;;;;13.10;99.90;;;;;;4995014;28;19991;-62
2022/07/02 02:10:44;;;;;;;;;;;12.90;99.90;;;;;;5000088;28;19917;-62
2022/07/02 02:13:10;;;;;;;;;;;12.90;99.90;;;;;;5000142;28;19917;-62
2022/07/02 02:15:35;;;;;;;;;;;12.80;99.90;;;;;;4995936;28;19924;-62
2022/07/02 02:18:01;;;;;;;;;;;12.60;99.90;;;;;;4993862;28;19936;-62
2022/07/02 02:20:26;;;;;;;;;;;12.60;99.90;;;;;;4997319;28;19913;-62
2022/07/02 02:22:52;;;;;;;;;;;12.50;99.90;;;;;;4995014;28;19917;-62
2022/07/02 02:25:17;;;;;;;;;;;12.70;99.90;;;;;;4995501;28;19914;-62
2022/07/02 02:27:43;;;;;;;;;;;12.80;99.90;;;;;;4995109;28;19916;-62
2022/07/02 02:30:09;;;;;;;;;;;12.80;99.90;;;;;;4994116;28;19932;-62
2022/07/02 02:32:36;;;;;;;;;;;12.80;99.90;;;;;;4996758;28;20284;-62
2022/07/02 02:35:03;;;;;;;;;;;12.70;99.90;;;;;;4992711;28;19956;-62
2022/07/02 02:37:28;;;;;;;;;;;12.80;99.90;;;;;;4996421;28;19956;-62
2022/07/02 02:39:54;;;;;;;;;;;12.80;99.90;;;;;;4992030;28;20428;-62
2022/07/02 02:42:19;;;;;;;;;;;13.00;99.90;;;;;;4997263;28;19914;-63
2022/07/02 02:44:45;;;;;;;;;;;13.20;99.90;;;;;;4994314;28;20333;-62
2022/07/02 02:47:10;;;;;;;;;;;13.20;99.90;;;;;;4993352;28;20025;-62
2022/07/02 02:49:36;;;;;;;;;;;13.10;99.90;;;;;;4995463;28;19939;-62
2022/07/02 02:52:01;;;;;;;;;;;13.00;99.90;;;;;;4993545;28;20033;-62
2022/07/02 02:54:27;;;;;;;;;;;13.00;99.90;;;;;;4993057;28;20365;-62
2022/07/02 02:56:52;;;;;;;;;;;12.90;99.90;;;;;;4999297;28;19916;-62
2022/07/02 02:59:18;;;;;;;;;;;12.70;99.90;;;;;;4997374;28;19927;-62
2022/07/02 03:01:43;;;;;;;;;;;12.50;99.90;;;;;;4999833;28;19909;-62
2022/07/02 03:04:09;;;;;;;;;;;12.40;99.90;;;;;;4994273;28;19976;-62
2022/07/02 03:06:35;;;;;;;;;;;12.10;99.90;;;;;;4997241;28;19924;-62
2022/07/02 03:09:00;;;;;;;;;;;11.90;99.90;;;;;;4996912;28;19921;-62
2022/07/02 03:11:26;;;;;;;;;;;11.70;99.90;;;;;;4999764;28;19917;-62
2022/07/02 03:13:51;;;;;;;;;;;11.60;99.90;;;;;;4998519;28;19916;-62
2022/07/02 03:16:17;;;;;;;;;;;11.60;99.90;;;;;;4994981;28;20004;-62
2022/07/02 03:18:42;;;;;;;;;;;11.40;99.90;;;;;;4998563;28;20262;-63
2022/07/02 03:21:08;;;;;;;;;;;11.30;99.90;;;;;;4991251;28;19910;-62
2022/07/02 03:23:34;;;;;;;;;;;11.10;99.90;;;;;;4997107;28;19914;-62
2022/07/02 03:25:59;;;;;;;;;;;11.00;99.90;;;;;;4998491;28;19910;-62
2022/07/02 03:28:26;;;;;;;;;;;11.00;99.90;;;;;;4998663;28;20368;-62
2022/07/02 03:30:51;;;;;;;;;;;11.10;99.90;;;;;;4995315;28;19964;-62
2022/07/02 03:33:17;;;;;;;;;;;11.50;99.90;;;;;;4997484;28;20317;-62
2022/07/02 03:35:42;;;;;;;;;;;11.70;99.90;;;;;;4998716;28;20328;-63
2022/07/02 03:38:08;;;;;;;;;;;11.70;99.90;;;;;;5002015;28;20382;-62
2022/07/02 03:40:33;;;;;;;;;;;11.90;99.90;;;;;;5001401;28;19914;-62
2022/07/02 03:42:59;;;;;;;;;;;11.80;99.90;;;;;;5001419;28;19961;-62
2022/07/02 03:45:24;;;;;;;;;;;11.60;99.90;;;;;;5002256;28;19982;-62
2022/07/02 03:47:50;;;;;;;;;;;11.50;99.90;;;;;;5001037;28;19921;-62
2022/07/02 03:50:15;;;;;;;;;;;11.40;99.90;;;;;;5000254;28;20329;-62
2022/07/02 03:52:41;;;;;;;;;;;11.50;99.90;;;;;;5002574;28;20001;-62
2022/07/02 03:55:09;;;;;;;;;;;11.60;99.90;;;;;;5001438;28;19961;-62
2022/07/02 03:57:35;;;;;;;;;;;11.70;99.90;;;;;;5000292;28;19910;-62
2022/07/02 04:00:01;;;;;;;;;;;11.90;99.90;;;;;;5002979;28;20411;-62
2022/07/02 04:02:27;;;;;;;;;;;12.00;99.90;;;;;;4983145;28;19983;-62
2022/07/02 04:04:53;;;;;;;;;;;12.30;99.90;;;;;;4998990;28;19933;-62
2022/07/02 04:07:19;;;;;;;;;;;12.40;99.90;;;;;;5001783;28;19925;-62
2022/07/02 04:09:45;;;;;;;;;;;12.70;99.90;;;;;;5003188;28;19931;-61
2022/07/02 04:12:10;;;;;;;;;;;12.80;99.90;;;;;;4996000;28;19926;-62
2022/07/02 04:14:36;;;;;;;;;;;12.80;99.90;;;;;;4992253;28;20324;-62
2022/07/02 04:17:02;;;;;;;;;;;12.90;99.90;;;;;;4993057;28;19913;-62
2022/07/02 04:19:28;;;;;;;;;;;12.90;99.90;;;;;;4998524;28;20270;-62
2022/07/02 04:21:54;;;;;;;;;;;13.00;99.90;;;;;;5000435;28;19910;-62
2022/07/02 04:24:19;;;;;;;;;;;12.90;99.90;;;;;;4984754;28;20472;-62
2022/07/02 04:26:45;;;;;;;;;;;13.10;99.90;;;;;;5002038;28;19933;-62
2022/07/02 04:29:11;;;;;;;;;;;13.30;99.90;;;;;;5000541;28;19910;-62
2022/07/02 04:31:36;;;;;;;;;;;13.40;99.90;;;;;;5002217;28;20258;-62
2022/07/02 04:34:02;;;;;;;;;;;13.50;99.90;;;;;;5002292;28;19912;-62
2022/07/02 04:36:27;;;;;;;;;;;13.60;99.90;;;;;;4994967;28;20108;-62
2022/07/02 04:38:53;;;;;;;;;;;13.70;99.90;;;;;;4997748;28;19917;-62
2022/07/02 04:41:18;;;;;;;;;;;13.70;99.90;;;;;;4988861;28;19953;-62
2022/07/02 04:43:44;;;;;;;;;;;13.70;99.90;;;;;;4991346;28;20223;-62
2022/07/02 04:46:09;;;;;;;;;;;13.80;99.90;;;;;;4988922;28;19914;-62
2022/07/02 04:48:35;;;;;;;;;;;13.80;99.90;;;;;;4998194;28;19913;-62
2022/07/02 04:51:00;;;;;;;;;;;13.90;99.90;;;;;;4998566;28;19936;-62
2022/07/02 04:53:26;;;;;;;;;;;14.00;99.90;;;;;;5001426;28;19980;-62
2022/07/02 04:55:51;;;;;;;;;;;14.10;99.90;;;;;;4998398;28;20001;-62
2022/07/02 04:58:17;;;;;;;;;;;14.20;99.90;;;;;;5000697;28;20004;-61
2022/07/02 05:00:42;;;;;;;;;;;14.30;99.90;;;;;;5001057;28;19913;-62
2022/07/02 05:03:08;;;;;;;;;;;14.40;99.90;;;;;;4981726;28;19917;-62
2022/07/02 05:05:33;;;;;;;;;;;14.40;99.90;;;;;;4992988;28;20296;-61
2022/07/02 05:07:59;;;;;;;;;;;14.50;99.90;;;;;;4987709;28;19925;-62
2022/07/02 05:10:24;;;;;;;;;;;14.60;99.90;;;;;;4986483;28;19972;-62
2022/07/02 05:12:50;;;;;;;;;;;14.70;99.90;;;;;;4997252;28;20445;-62
2022/07/02 05:15:15;;;;;;;;;;;14.70;99.90;;;;;;4997332;28;20000;-62
2022/07/02 05:17:41;;;;;;;;;;;14.80;99.90;;;;;;4994333;28;19914;-62
2022/07/02 05:20:07;;;;;;;;;;;14.80;99.90;;;;;;4983401;28;20309;-63
2022/07/02 05:22:32;;;;;;;;;;;14.90;99.90;;;;;;4996351;28;19936;-62
2022/07/02 05:24:58;;;;;;;;;;;15.00;99.90;;;;;;4999545;28;19910;-62
2022/07/02 05:27:23;;;;;;;;;;;15.10;99.90;;;;;;4999777;28;19914;-62
2022/07/02 05:29:49;;;;;;;;;;;15.20;99.90;;;;;;4996708;28;19921;-62
2022/07/02 05:32:14;;;;;;;;;;;15.30;99.90;;;;;;4997606;28;20460;-62
2022/07/02 05:34:40;;;;;;;;;;;15.30;99.90;;;;;;4990598;28;19948;-61
2022/07/02 05:37:05;;;;;;;;;;;15.30;99.90;;;;;;4998690;28;19917;-61
2022/07/02 05:39:31;;;;;;;;;;;15.30;99.90;;;;;;4995112;28;20646;-62
2022/07/02 05:41:56;;;;;;;;;;;15.40;99.90;;;;;;4977976;28;19914;-61
2022/07/02 05:44:22;;;;;;;;;;;15.40;99.90;;;;;;4995694;28;19932;-61
2022/07/02 05:46:47;;;;;;;;;;;15.50;99.90;;;;;;4981161;28;20470;-61
2022/07/02 05:49:13;;;;;;;;;;;15.60;99.90;;;;;;4997569;28;20265;-61
2022/07/02 05:51:38;;;;;;;;;;;15.70;99.90;;;;;;4997305;28;19916;-62
2022/07/02 05:54:04;;;;;;;;;;;15.80;99.90;;;;;;4998667;28;19920;-62
2022/07/02 05:56:29;;;;;;;;;;;15.90;99.90;;;;;;5000624;28;19916;-62
2022/07/02 05:58:55;;;;;;;;;;;16.00;99.90;;;;;;5001218;28;19913;-62
2022/07/02 06:01:20;;;;;;;;;;;16.00;99.90;;;;;;5000034;28;20009;-62
2022/07/02 06:03:46;;;;;;;;;;;16.10;99.90;;;;;;5000477;28;20339;-62
2022/07/02 06:08:55;;;;;;;;;;;16.20;99.90;;;;;;4994634;28;19953;-63
2022/07/02 06:11:21;;;;;;;;;;;16.30;99.90;;;;;;4993911;28;20413;-63
2022/07/02 06:13:46;;;;;;;;;;;16.50;99.90;;;;;;5000986;28;19920;-63
2022/07/02 06:16:12;;;;;;;;;;;16.60;99.90;;;;;;4995341;28;19910;-63
2022/07/02 06:18:37;;;;;;;;;;;16.70;99.90;;;;;;4995161;28;19914;-63
2022/07/02 06:21:03;;;;;;;;;;;16.70;99.90;;;;;;4992949;28;19949;-64
2022/07/02 06:23:28;;;;;;;;;;;16.70;99.90;;;;;;4996048;28;20332;-63
2022/07/02 06:25:54;;;;;;;;;;;16.80;99.90;;;;;;4997223;28;19914;-62
2022/07/02 06:28:19;;;;;;;;;;;16.90;99.90;;;;;;4995818;28;19914;-62
2022/07/02 06:30:45;;;;;;;;;;;17.00;99.90;;;;;;4995817;28;19917;-63
2022/07/02 06:33:10;;;;;;;;;;;17.20;99.90;;;;;;5001223;28;19917;-63
2022/07/02 06:35:36;;;;;;;;;;;17.20;99.90;;;;;;5000600;28;19914;-62
2022/07/02 06:38:02;;;;;;;;;;;17.30;99.90;;;;;;4987585;28;19925;-63
2022/07/02 06:40:27;;;;;;;;;;;17.30;99.90;;;;;;4991946;28;20335;-62
2022/07/02 06:42:54;;;;;;;;;;;17.40;99.90;;;;;;4996155;28;19971;-62
2022/07/02 06:45:19;;;;;;;;;;;17.50;99.90;;;;;;4996265;28;19910;-62
2022/07/02 06:47:44;;;;;;;;;;;17.70;99.90;;;;;;4998429;28;20620;-62
2022/07/02 06:50:11;;;;;;;;;;;17.80;99.90;;;;;;4994958;28;19917;-62
2022/07/02 06:52:36;;;;;;;;;;;17.80;99.90;;;;;;4998297;28;20006;-62
2022/07/02 06:55:02;;;;;;;;;;;17.90;99.90;;;;;;5000093;28;19956;-62
2022/07/02 06:57:28;;;;;;;;;;;18.00;99.90;;;;;;4993014;28;20014;-63
2022/07/02 06:59:53;;;;;;;;;;;18.20;99.90;;;;;;4998350;28;19936;-63
2022/07/02 07:02:19;;;;;;;;;;;18.30;99.90;;;;;;4998574;28;19964;-62
2022/07/02 07:04:45;;;;;;;;;;;18.30;99.90;;;;;;4994444;28;19918;-63
2022/07/02 07:07:11;;;;;;;;;;;18.20;99.90;;;;;;4993405;28;19929;-63
2022/07/02 07:09:36;;;;;;;;;;;18.30;99.90;;;;;;4993009;28;19968;-62
2022/07/02 07:12:06;;;;;;;;;;;18.50;99.90;;;;;;4997229;28;19909;-62
2022/07/02 07:14:32;;;;;;;;;;;18.70;99.90;;;;;;4998126;28;19921;-62
2022/07/02 07:16:58;;;;;;;;;;;18.80;99.90;;;;;;5000748;28;19910;-62
2022/07/02 07:19:23;;;;;;;;;;;18.90;99.90;;;;;;5000314;28;19913;-62
2022/07/02 07:21:49;;;;;;;;;;;18.90;99.90;;;;;;4999379;28;19909;-62
2022/07/02 07:24:15;;;;;;;;;;;19.00;99.90;;;;;;4998345;28;20036;-62
2022/07/02 07:26:40;;;;;;;;;;;19.20;99.90;;;;;;4998288;28;19959;-62
2022/07/02 07:29:06;;;;;;;;;;;19.30;99.90;;;;;;5001998;28;19909;-62
2022/07/02 07:31:32;;;;;;;;;;;19.30;99.90;;;;;;5000182;28;19910;-62
2022/07/02 07:33:57;;;;;;;;;;;19.40;99.90;;;;;;5000130;28;19910;-63
2022/07/02 07:36:23;;;;;;;;;;;19.60;99.90;;;;;;4997223;28;20532;-63
2022/07/02 07:38:49;;;;;;;;;;;19.90;99.90;;;;;;4998510;28;20501;-63
2022/07/02 07:41:15;;;;;;;;;;;19.80;99.90;;;;;;5000733;28;19916;-62
2022/07/02 07:43:41;;;;;;;;;;;19.80;99.90;;;;;;5000728;28;19910;-63
2022/07/02 07:46:06;;;;;;;;;;;19.90;99.90;;;;;;4992777;28;19992;-62
2022/07/02 07:48:32;;;;;;;;;;;20.00;99.90;;;;;;4996886;28;19914;-62
2022/07/02 07:50:58;;;;;;;;;;;20.00;98.40;;;;;;4996661;28;19914;-63
2022/07/02 07:53:24;;;;;;;;;;;20.00;98.30;;;;;;4991406;28;19918;-63
2022/07/02 07:55:49;;;;;;;;;;;20.00;98.80;;;;;;4993326;28;19956;-63
2022/07/02 07:58:15;;;;;;;;;;;20.10;98.00;;;;;;4998328;28;19914;-63
2022/07/02 08:00:41;;;;;;;;;;;20.00;98.10;;;;;;4997532;28;19943;-62
2022/07/02 08:03:06;;;;;;;;;;;20.10;99.40;;;;;;4999926;28;19918;-62
2022/07/02 08:05:32;;;;;;;;;;;20.30;99.20;;;;;;4994409;28;19962;-63
2022/07/02 08:07:57;;;;;;;;;;;20.40;98.70;;;;;;4999442;28;19984;-62
2022/07/02 08:10:23;;;;;;;;;;;20.50;97.60;;;;;;4999289;28;20009;-63
2022/07/02 08:12:49;;;;;;;;;;;20.80;97.50;;;;;;5002756;28;20000;-63
2022/07/02 08:15:15;;;;;;;;;;;21.10;95.90;;;;;;5001794;28;20004;-63
2022/07/02 08:17:41;;;;;;;;;;;21.80;95.30;;;;;;4999779;28;20052;-63
2022/07/02 08:20:07;;;;;;;;;;;22.20;93.60;;;;;;4997973;28;19917;-63
2022/07/02 08:22:33;;;;;;;;;;;22.60;92.70;;;;;;5001039;28;19995;-63
2022/07/02 08:24:58;;;;;;;;;;;23.10;90.90;;;;;;4997688;28;19917;-63
2022/07/02 08:27:24;;;;;;;;;;;23.90;89.20;;;;;;4999485;28;19914;-63
2022/07/02 08:29:49;;;;;;;;;;;24.40;86.50;;;;;;4998674;28;19913;-63
2022/07/02 08:32:15;;;;;;;;;;;24.60;87.60;;;;;;4999905;28;20350;-63
2022/07/02 08:34:41;;;;;;;;;;;25.10;83.10;;;;;;5005092;28;19913;-63
2022/07/02 08:37:06;;;;;;;;;;;24.70;82.80;;;;;;5003179;28;19929;-62
2022/07/02 08:39:32;;;;;;;;;;;24.50;80.20;;;;;;4999399;28;19921;-64
2022/07/02 08:41:58;;;;;;;;;;;24.90;78.90;;;;;;5000585;28;20254;-64
2022/07/02 08:44:24;;;;;;;;;;;25.70;79.70;;;;;;5002663;28;19917;-63
2022/07/02 08:46:50;;;;;;;;;;;25.90;75.20;;;;;;5002004;28;19917;-64
2022/07/02 08:49:20;;;;;;;;;;;24.60;76.40;;;;;;5005603;28;19916;-64
2022/07/02 08:54:22;;;;;;;;;;;24.10;76.40;;;;;;5002153;28;19913;-63
2022/07/02 08:56:48;;;;;;;;;;;24.50;76.80;;;;;;5003231;28;19918;-63
2022/07/02 08:59:15;;;;;;;;;;;25.50;75.30;;;;;;4994827;28;20522;-63
2022/07/02 09:01:41;;;;;;;;;;;26.10;75.00;;;;;;4991515;28;19922;-64
2022/07/02 09:04:06;;;;;;;;;;;26.70;71.80;;;;;;4988960;28;20237;-63
2022/07/02 09:06:35;;;;;;;;;;;26.50;71.50;;;;;;4994378;28;19968;-63
2022/07/02 09:09:00;;;;;;;;;;;26.20;72.00;;;;;;4990790;28;19921;-64
2022/07/02 09:11:28;;;;;;;;;;;25.80;70.70;;;;;;4971614;28;19917;-63
2022/07/02 09:13:54;;;;;;;;;;;25.30;71.80;;;;;;4996584;28;19914;-63
2022/07/02 09:16:19;;;;;;;;;;;24.60;72.30;;;;;;4993106;28;20433;-63
2022/07/02 09:18:45;;;;;;;;;;;24.60;73.20;;;;;;4999267;28;19923;-63
2022/07/02 09:21:10;;;;;;;;;;;26.00;71.10;;;;;;4993635;28;20254;-63
2022/07/02 09:23:44;;;;;;;;;;;26.10;71.00;;;;;;4997564;28;19909;-63
2022/07/02 09:26:16;;;;;;;;;;;26.30;70.50;;;;;;4991546;28;20436;-63
2022/07/02 09:28:50;;;;;;;;;;;24.90;71.20;;;;;;4979800;28;19916;-62
2022/07/02 09:31:15;;;;;;;;;;;24.50;71.50;;;;;;4989550;28;19940;-63
2022/07/02 09:33:41;;;;;;;;;;;24.70;71.50;;;;;;4989472;28;20016;-62
2022/07/02 09:36:11;;;;;;;;;;;26.10;70.00;;;;;;4988499;28;19920;-63
2022/07/02 09:38:41;;;;;;;;;;;27.50;68.30;;;;;;4990163;28;20622;-63
2022/07/02 09:41:10;;;;;;;;;;;27.50;67.10;;;;;;4985551;28;20373;-63
2022/07/02 09:43:38;;;;;;;;;;;27.20;69.30;;;;;;4988247;28;19918;-62
2022/07/02 09:46:14;;;;;;;;;;;26.60;69.00;;;;;;4990969;28;20298;-63
2022/07/02 09:48:40;;;;;;;;;;;27.20;67.20;;;;;;4980437;28;20229;-63
2022/07/02 09:51:05;;;;;;;;;;;27.60;66.40;;;;;;4998176;28;20287;-63
2022/07/02 09:53:32;;;;;;;;;;;27.80;65.50;;;;;;4974980;28;19913;-63
2022/07/02 09:55:57;;;;;;;;;;;27.30;65.10;;;;;;4988891;28;19920;-63
2022/07/02 09:58:26;;;;;;;;;;;27.80;63.20;;;;;;4988933;28;19910;-63
2022/07/02 10:00:53;;;;;;;;;;;27.70;63.10;;;;;;4988551;28;19953;-63
2022/07/02 10:03:19;;;;;;;;;;;28.30;63.60;;;;;;4989035;28;20338;-63
2022/07/02 10:05:45;;;;;;;;;;;28.90;62.40;;;;;;4977729;28;19952;-63
2022/07/02 10:08:11;;;;;;;;;;;29.40;61.30;;;;;;4988293;28;20001;-63
2022/07/02 10:10:38;;;;;;;;;;;28.20;62.40;;;;;;4994498;28;19914;-62
2022/07/02 10:13:04;;;;;;;;;;;27.50;62.90;;;;;;4997318;28;20258;-63
2022/07/02 10:15:31;;;;;;;;;;;28.00;63.90;;;;;;4998681;28;20299;-62
2022/07/02 10:17:57;;;;;;;;;;;28.20;61.80;;;;;;4982125;28;19922;-62
2022/07/02 10:20:23;;;;;;;;;;;28.00;63.30;;;;;;4988209;28;19957;-62
2022/07/02 10:22:52;;;;;;;;;;;27.10;63.00;;;;;;4993136;28;19979;-63
2022/07/02 10:25:18;;;;;;;;;;;26.40;64.80;;;;;;4997131;28;20383;-63
2022/07/02 10:27:44;;;;;;;;;;;27.50;65.50;;;;;;4997777;28;19972;-63
2022/07/02 10:30:10;;;;;;;;;;;28.50;63.50;;;;;;4982822;28;19909;-63
2022/07/02 10:32:40;;;;;;;;;;;28.60;61.50;;;;;;4996004;28;19910;-63
2022/07/02 10:35:12;;;;;;;;;;;28.50;62.30;;;;;;5000535;28;19909;-63
2022/07/02 10:37:41;;;;;;;;;;;29.30;61.00;;;;;;4991383;28;19925;-63
2022/07/02 10:40:07;;;;;;;;;;;29.80;58.50;;;;;;4996127;28;19914;-63
2022/07/02 10:42:39;;;;;;;;;;;29.20;61.60;;;;;;4996394;28;19913;-63
2022/07/02 10:45:12;;;;;;;;;;;30.10;61.60;;;;;;4997978;28;19929;-63
2022/07/02 10:47:51;;;;;;;;;;;30.60;59.80;;;;;;4997661;28;19914;-63
2022/07/02 10:50:17;;;;;;;;;;;29.20;60.20;;;;;;4998873;28;19956;-62
2022/07/02 10:52:50;;;;;;;;;;;27.50;61.80;;;;;;5003874;28;20364;-62
2022/07/02 10:55:25;;;;;;;;;;;28.20;62.40;;;;;;5000119;28;19914;-63
2022/07/02 10:58:01;;;;;;;;;;;29.30;60.40;;;;;;4998759;28;19910;-63
2022/07/02 11:00:38;;;;;;;;;;;30.40;59.10;;;;;;4997966;28;19913;-63
2022/07/02 11:03:11;;;;;;;;;;;30.10;58.60;;;;;;4999840;28;20008;-63
2022/07/02 11:05:50;;;;;;;;;;;30.10;59.60;;;;;;5000728;28;20079;-63
2022/07/02 11:08:34;;;;;;;;;;;29.70;59.10;;;;;;4998753;28;20336;-63
2022/07/02 11:11:00;;;;;;;;;;;30.60;58.70;;;;;;5000806;28;19909;-63
2022/07/02 11:13:34;;;;;;;;;;;30.50;58.90;;;;;;4999191;28;20445;-63
2022/07/02 11:16:00;;;;;;;;;;;30.90;58.40;;;;;;5000247;28;19917;-64
2022/07/02 11:18:28;;;;;;;;;;;31.00;58.20;;;;;;4997953;28;19910;-64
2022/07/02 11:20:54;;;;;;;;;;;30.70;57.00;;;;;;4998604;28;20390;-64
2022/07/02 11:23:19;;;;;;;;;;;31.20;58.50;;;;;;4996170;28;19957;-64
2022/07/02 11:25:45;;;;;;;;;;;31.30;58.10;;;;;;5001630;28;20091;-64
2022/07/02 11:28:12;;;;;;;;;;;30.80;56.40;;;;;;4996577;28;20284;-64
2022/07/02 11:30:38;;;;;;;;;;;30.90;56.80;;;;;;5000275;28;20289;-63
2022/07/02 11:33:12;;;;;;;;;;;31.50;57.20;;;;;;4982666;28;19968;-64
2022/07/02 11:35:37;;;;;;;;;;;31.60;56.30;;;;;;4997355;28;20283;-63
2022/07/02 11:38:03;;;;;;;;;;;31.10;56.30;;;;;;4999111;28;19918;-63
2022/07/02 11:40:28;;;;;;;;;;;31.00;57.60;;;;;;4996117;28;19913;-64
2022/07/02 11:42:54;;;;;;;;;;;31.40;55.90;;;;;;4997713;28;19910;-64
2022/07/02 11:45:19;;;;;;;;;;;31.90;55.90;;;;;;4986423;28;20357;-64
2022/07/02 11:47:46;;;;;;;;;;;33.20;56.00;;;;;;4991011;28;19909;-64
2022/07/02 11:50:12;;;;;;;;;;;33.20;54.20;;;;;;4994301;28;20652;-64
2022/07/02 11:52:37;;;;;;;;;;;33.00;55.50;;;;;;4995495;28;19917;-64
2022/07/02 11:55:03;;;;;;;;;;;32.90;54.50;;;;;;4994624;28;20381;-64
2022/07/02 11:57:34;;;;;;;;;;;33.50;53.90;;;;;;4993035;28;20384;-64
2022/07/02 12:00:00;;;;;;;;;;;32.40;54.40;;;;;;4994912;28;19922;-64
2022/07/02 12:02:36;;;;;;;;;;;32.40;54.40;;;;;;4992224;28;20369;-63
2022/07/02 12:05:11;;;;;;;;;;;31.90;53.80;;;;;;4997165;28;19913;-63
2022/07/02 12:07:41;;;;;;;;;;;31.10;55.40;;;;;;4994841;28;19929;-63
2022/07/02 12:10:07;;;;;;;;;;;31.70;56.00;;;;;;4987981;28;20284;-63
2022/07/02 12:12:32;;;;;;;;;;;32.30;54.80;;;;;;4978642;28;19924;-64
2022/07/02 12:14:58;;;;;;;;;;;32.80;55.10;;;;;;5000930;28;19959;-64
2022/07/02 12:17:23;;;;;;;;;;;32.80;54.00;;;;;;4996966;28;20043;-62
2022/07/02 12:19:52;;;;;;;;;;;33.70;54.00;;;;;;4991966;28;19922;-62
2022/07/02 12:22:25;;;;;;;;;;;33.70;53.00;;;;;;4996587;28;19913;-62
2022/07/02 12:24:51;;;;;;;;;;;33.80;52.20;;;;;;4996375;28;19967;-62
2022/07/02 12:27:17;;;;;;;;;;;32.70;52.70;;;;;;4997243;28;20407;-62
2022/07/02 12:29:58;;;;;;;;;;;32.40;53.50;;;;;;4993206;28;19910;-62
2022/07/02 12:32:35;;;;;;;;;;;32.40;53.70;;;;;;4983572;28;19913;-63
2022/07/02 12:35:12;;;;;;;;;;;33.50;52.60;;;;;;4996981;28;19913;-63
2022/07/02 12:37:39;;;;;;;;;;;33.90;52.90;;;;;;4993184;28;20448;-63
2022/07/02 12:40:11;;;;;;;;;;;35.20;52.10;;;;;;4991790;28;19917;-63
2022/07/02 12:42:43;;;;;;;;;;;35.60;52.00;;;;;;4995468;28;20443;-64
2022/07/02 12:45:09;;;;;;;;;;;35.50;51.70;;;;;;4993620;28;20015;-63
2022/07/02 12:47:38;;;;;;;;;;;34.80;51.70;;;;;;4996044;28;19952;-63
2022/07/02 12:50:04;;;;;;;;;;;35.00;51.10;;;;;;4990930;28;19914;-63
2022/07/02 12:52:30;;;;;;;;;;;35.30;51.10;;;;;;4995051;28;19920;-63
2022/07/02 12:54:57;;;;;;;;;;;34.60;50.50;;;;;;4971454;28;19972;-63
2022/07/02 12:57:23;;;;;;;;;;;35.60;51.30;;;;;;4985497;28;20252;-63
2022/07/02 12:59:49;;;;;;;;;;;35.80;50.10;;;;;;4988924;28;19922;-64
2022/07/02 13:02:25;;;;;;;;;;;35.90;50.20;;;;;;4991058;28;20278;-63
2022/07/02 13:04:51;;;;;;;;;;;36.50;50.20;;;;;;4990694;28;19964;-63
2022/07/02 13:07:16;;;;;;;;;;;36.20;51.00;;;;;;4993767;28;20412;-63
2022/07/02 13:09:42;;;;;;;;;;;35.90;50.50;;;;;;4987962;28;19914;-64
2022/07/02 13:12:10;;;;;;;;;;;36.40;50.00;;;;;;4991574;28;19913;-63
2022/07/02 13:14:37;;;;;;;;;;;36.20;50.10;;;;;;4988179;28;19909;-63
2022/07/02 13:17:03;;;;;;;;;;;35.00;49.90;;;;;;4994817;28;20004;-63
2022/07/02 13:19:28;;;;;;;;;;;35.60;50.70;;;;;;4976095;28;20826;-63
2022/07/02 13:21:54;;;;;;;;;;;36.00;50.70;;;;;;4991920;28;20433;-63
2022/07/02 13:24:20;;;;;;;;;;;33.60;51.50;;;;;;4997073;28;20048;-63
2022/07/02 13:26:45;;;;;;;;;;;34.10;51.70;;;;;;4995545;28;19957;-63
2022/07/02 13:29:11;;;;;;;;;;;35.20;50.80;;;;;;4997206;28;20004;-63
2022/07/02 13:31:36;;;;;;;;;;;35.60;50.50;;;;;;4997504;28;19924;-64
2022/07/02 13:34:02;;;;;;;;;;;36.70;50.20;;;;;;4992531;28;20332;-64
2022/07/02 13:36:27;;;;;;;;;;;37.20;49.40;;;;;;5000536;28;20400;-63
2022/07/02 13:38:53;;;;;;;;;;;34.90;49.30;;;;;;4995320;28;19914;-63
2022/07/02 13:41:18;;;;;;;;;;;34.20;51.50;;;;;;4995634;28;19976;-63
2022/07/02 13:43:44;;;;;;;;;;;35.50;50.60;;;;;;4993533;28;19914;-63
2022/07/02 13:46:09;;;;;;;;;;;35.00;50.80;;;;;;4995452;28;20007;-63
2022/07/02 13:48:35;;;;;;;;;;;36.00;50.90;;;;;;4992588;28;20369;-63
2022/07/02 13:51:00;;;;;;;;;;;36.20;49.90;;;;;;4992093;28;20024;-63
2022/07/02 13:53:26;;;;;;;;;;;36.50;48.90;;;;;;4992942;28;19918;-63
2022/07/02 13:55:51;;;;;;;;;;;35.60;49.90;;;;;;4996536;28;20234;-63
2022/07/02 13:58:17;;;;;;;;;;;35.60;50.20;;;;;;4991313;28;19924;-64
2022/07/02 14:00:42;;;;;;;;;;;36.50;49.50;;;;;;4987491;28;19918;-63
2022/07/02 14:03:08;;;;;;;;;;;37.20;49.30;;;;;;4998904;28;19972;-64
2022/07/02 14:05:33;;;;;;;;;;;37.60;48.90;;;;;;4995934;28;19928;-64
2022/07/02 14:07:59;;;;;;;;;;;37.60;48.40;;;;;;4992781;28;19921;-65
2022/07/02 14:10:24;;;;;;;;;;;37.20;47.80;;;;;;4976825;28;19921;-64
2022/07/02 14:12:50;;;;;;;;;;;37.10;48.40;;;;;;4997929;28;19926;-64
2022/07/02 14:15:16;;;;;;;;;;;37.20;48.30;;;;;;4999103;28;19913;-65
2022/07/02 14:17:42;;;;;;;;;;;37.80;47.70;;;;;;4996708;28;19917;-65
2022/07/02 14:20:07;;;;;;;;;;;38.10;47.70;;;;;;4993665;28;20365;-64